Terminal Aerodrome Forecast
Issued by NWS Cleveland, OH

Home | Current Version | Previous Version | Graphics & Text | Print | Product List | Glossary On
Versions: 1 2 3 4 5 6 7 8 9 10 11 12 13 14 15 16 17 18 19 20 21 22 23 24
000
FTUS41 KCLE 211120
TAFMFD
TAF
KMFD 211120Z 2112/2212 21006KT 3/4SM BR OVC003
      TEMPO 2112/2116 1/4SM -DZ FG VV002
     FM211600 20008KT 2SM BR OVC004
     FM211800 20008KT 3SM BR OVC006
     FM220200 19009KT 3SM -DZ BR OVC002
     FM221100 18010KT 5SM -RA BR OVC015=

USA.gov is the U.S. government's official web portal to all federal, state and local government web resources and services.